Time;durP1;ratioP1;P1;durP2;ratioP2;P2;SDS_P1;SDS_P2;PMS_P1;PMS_P2;Temp;Humidity;BMP_temperature;BMP_pressure;BME280_temperature;BME280_humidity;BME280_pressure;Samples;Min_cycle;Max_cycle;Signal;HPM_P1;HPM_P2
2023/01/29 00:00:35;;;;;;;;;;;;;;;12.74;70.77;102647.56;1261429;23;1002;-73
2023/01/29 00:01:25;;;;;;;;;;;;;;;12.71;70.87;102647.72;1259687;23;657;-73
2023/01/29 00:02:15;;;;;;;;;;;;;;;12.72;70.79;102652.09;1255152;23;798;-73
2023/01/29 00:03:06;;;;;;;;;;;;;;;12.71;71.36;102655.75;1249216;23;598;-74
2023/01/29 00:03:56;;;;;;;;;;;;;;;12.73;71.28;102650.31;1255141;23;987;-74
2023/01/29 00:04:47;;;;;;;;;;;;;;;12.73;71.01;102651.16;1261594;23;626;-74
2023/01/29 00:05:37;;;;;;;;;;;;;;;12.70;70.77;102648.66;1259639;23;1889;-74
2023/01/29 00:06:28;;;;;;;;;;;;;;;12.68;70.97;102642.50;1259894;23;653;-74
2023/01/29 00:07:18;;;;;;;;;;;;;;;12.70;70.96;102645.13;1259629;23;689;-75
2023/01/29 00:08:08;;;;;;;;;;;;;;;12.70;71.27;102634.41;1260932;23;586;-74
2023/01/29 00:08:59;;;;;;;;;;;;;;;12.72;70.62;102635.22;1261494;23;637;-75
2023/01/29 00:09:49;;;;;;;;;;;;;;;12.70;71.35;102632.63;1259759;23;603;-74
2023/01/29 00:10:40;;;;;;;;;;;;;;;12.69;71.46;102633.53;1260445;23;635;-74
2023/01/29 00:11:30;;;;;;;;;;;;;;;12.68;71.09;102639.84;1261799;23;637;-73
2023/01/29 00:12:21;;;;;;;;;;;;;;;12.70;71.23;102637.97;1261703;23;669;-73
2023/01/29 00:13:11;;;;;;;;;;;;;;;12.70;71.10;102643.31;1259669;23;611;-72
2023/01/29 00:14:02;;;;;;;;;;;;;;;12.70;71.17;102632.63;1259932;23;626;-72
2023/01/29 00:14:52;;;;;;;;;;;;;;;12.70;71.66;102634.41;1259510;23;645;-73
2023/01/29 00:15:43;;;;;;;;;;;;;;;12.69;71.49;102638.91;1255103;23;685;-73
2023/01/29 00:16:33;;;;;;;;;;;;;;;12.69;70.96;102633.53;1254983;23;614;-73
2023/01/29 00:17:24;;;;;;;;;;;;;;;12.69;71.39;102633.53;1260708;23;642;-73
2023/01/29 00:18:14;;;;;;;;;;;;;;;12.69;71.19;102635.34;1259643;23;619;-73
2023/01/29 00:19:05;;;;;;;;;;;;;;;12.68;71.64;102637.16;1259778;23;716;-73
2023/01/29 00:19:55;;;;;;;;;;;;;;;12.68;71.51;102634.47;1261343;23;657;-73
2023/01/29 00:20:45;;;;;;;;;;;;;;;12.67;71.35;102635.41;1259752;23;654;-73
2023/01/29 00:21:36;;;;;;;;;;;;;;;12.69;70.93;102633.53;1260080;23;627;-73
2023/01/29 00:22:26;;;;;;;;;;;;;;;12.69;71.09;102630.88;1259102;23;642;-73
2023/01/29 00:23:17;;;;;;;;;;;;;;;12.67;70.87;102637.22;1261335;23;684;-72
2023/01/29 00:24:07;;;;;;;;;;;;;;;12.65;71.83;102639.09;1259618;23;639;-73
2023/01/29 00:24:58;;;;;;;;;;;;;;;12.63;71.09;102631.13;1259882;23;642;-73
2023/01/29 00:25:48;;;;;;;;;;;;;;;12.65;71.36;102634.63;1259555;23;1909;-74
2023/01/29 00:26:39;;;;;;;;;;;;;;;12.64;71.06;102638.22;1259715;23;651;-73
2023/01/29 00:27:29;;;;;;;;;;;;;;;12.65;71.09;102644.44;1261382;23;602;-73
2023/01/29 00:28:19;;;;;;;;;;;;;;;12.65;71.86;102639.97;1261344;23;599;-73
2023/01/29 00:29:10;;;;;;;;;;;;;;;12.66;71.09;102639.03;1261474;23;657;-73
2023/01/29 00:30:17;;;;;;;;;;;;;;;12.65;71.09;102645.31;1261455;23;593;-73
2023/01/29 00:31:08;;;;;;;;;;;;;;;12.65;70.94;102642.63;1255123;23;681;-74
2023/01/29 00:31:58;;;;;;;;;;;;;;;12.65;71.05;102633.75;1255100;23;645;-74
2023/01/29 00:32:49;;;;;;;;;;;;;;;12.65;71.23;102633.75;1260513;23;654;-74
2023/01/29 00:33:39;;;;;;;;;;;;;;;12.64;71.85;102635.56;1259609;23;571;-74
2023/01/29 00:34:29;;;;;;;;;;;;;;;12.62;71.35;102633.88;1259684;23;638;-74
2023/01/29 00:35:20;;;;;;;;;;;;;;;12.64;71.56;102632.00;1259879;23;630;-74
2023/01/29 00:36:10;;;;;;;;;;;;;;;12.60;72.10;102631.28;1261217;23;1227;-74
2023/01/29 00:37:03;;;;;;;;;;;;;;;12.64;71.90;102637.34;1259263;23;626;-74
2023/01/29 00:37:54;;;;;;;;;;;;;;;12.65;71.50;102631.94;1261376;23;645;-74
2023/01/29 00:38:53;;;;;;;;;;;;;;;12.64;71.87;102622.19;1259540;23;694;-74
2023/01/29 00:39:43;;;;;;;;;;;;;;;12.62;71.92;102624.06;1261345;23;641;-74
2023/01/29 00:44:56;;;;;;;;;;;;;;;12.62;71.57;102616.03;1259668;23;646;-74
2023/01/29 00:45:11;;;;;;;;;;;;;;;12.60;72.13;102619.69;1261323;23;622;-74
2023/01/29 00:46:02;;;;;;;;;;;;;;;12.61;71.73;102616.09;1261316;23;1937;-74
2023/01/29 00:46:53;;;;;;;;;;;;;;;12.59;71.68;102620.63;1259459;23;666;-74
2023/01/29 00:47:43;;;;;;;;;;;;;;;12.61;71.81;102616.09;1255135;23;618;-74
2023/01/29 00:48:34;;;;;;;;;;;;;;;12.61;71.22;102611.63;1255122;23;672;-74
2023/01/29 00:49:24;;;;;;;;;;;;;;;12.60;71.29;102615.22;1261331;23;653;-74
2023/01/29 00:50:15;;;;;;;;;;;;;;;12.61;71.21;102624.13;1259708;23;630;-74
2023/01/29 00:51:05;;;;;;;;;;;;;;;12.61;72.03;102616.09;1259543;23;631;-74
2023/01/29 00:53:05;;;;;;;;;;;;;;;12.63;71.57;102615.09;1261467;23;693;-75
2023/01/29 00:53:57;;;;;;;;;;;;;;;12.63;71.47;102615.09;1261352;23;673;-77
2023/01/29 00:54:47;;;;;;;;;;;;;;;12.62;71.99;102608.00;1260534;23;650;-76
2023/01/29 00:55:38;;;;;;;;;;;;;;;12.61;71.13;102606.25;1259849;23;665;-76
2023/01/29 00:56:28;;;;;;;;;;;;;;;12.60;71.37;102609.00;1259420;23;630;-77
2023/01/29 00:57:18;;;;;;;;;;;;;;;12.61;71.18;102616.97;1261305;23;673;-77
2023/01/29 00:58:09;;;;;;;;;;;;;;;12.61;72.04;102616.97;1259841;23;634;-77
2023/01/29 00:58:59;;;;;;;;;;;;;;;12.62;71.90;102608.00;1261401;23;645;-76
2023/01/29 00:59:50;;;;;;;;;;;;;;;12.63;71.37;102609.75;1261429;23;665;-76
2023/01/29 01:00:40;;;;;;;;;;;;;;;12.62;71.64;102605.31;1259497;23;631;-77
2023/01/29 01:03:49;;;;;;;;;;;;;;;12.58;71.23;102602.84;1261334;23;677;-77
2023/01/29 01:04:39;;;;;;;;;;;;;;;12.58;71.18;102605.53;1259772;23;638;-77
2023/01/29 01:05:30;;;;;;;;;;;;;;;12.60;71.61;102604.53;1255096;23;673;-77
2023/01/29 01:06:20;;;;;;;;;;;;;;;12.55;71.49;102593.16;1254865;23;662;-76
2023/01/29 01:07:11;;;;;;;;;;;;;;;12.54;71.16;102599.44;1260628;23;630;-76
2023/01/29 01:08:01;;;;;;;;;;;;;;;12.54;71.74;102596.78;1259484;23;650;-76
2023/01/29 01:11:10;;;;;;;;;;;;;;;12.58;71.61;102603.72;1261262;23;661;-77
2023/01/29 01:12:00;;;;;;;;;;;;;;;12.62;71.49;102601.78;1259545;23;587;-77
2023/01/29 01:12:51;;;;;;;;;;;;;;;12.62;71.56;102601.78;1259667;23;720;-77
2023/01/29 01:13:41;;;;;;;;;;;;;;;12.62;71.60;102601.78;1255125;23;622;-77
2023/01/29 01:14:34;;;;;;;;;;;;;;;12.61;72.06;102597.38;1249181;23;661;-75
2023/01/29 01:15:25;;;;;;;;;;;;;;;12.57;71.42;102596.63;1255075;23;793;-76
2023/01/29 01:16:15;;;;;;;;;;;;;;;12.56;71.66;102600.25;1260341;23;646;-72
2023/01/29 01:17:06;;;;;;;;;;;;;;;12.57;71.89;102611.81;1259733;23;669;-72
2023/01/29 01:17:56;;;;;;;;;;;;;;;12.57;72.24;102610.00;1259532;23;602;-74
2023/01/29 01:18:47;;;;;;;;;;;;;;;12.57;72.31;102610.00;1255019;23;654;-73
2023/01/29 01:19:37;;;;;;;;;;;;;;;12.58;71.44;102610.88;1254866;23;646;-73
2023/01/29 01:20:27;;;;;;;;;;;;;;;12.58;72.27;102616.22;1259778;23;618;-73
2023/01/29 01:21:18;;;;;;;;;;;;;;;12.58;71.99;102610.88;1259664;23;662;-73
2023/01/29 01:22:08;;;;;;;;;;;;;;;12.59;72.15;102612.63;1259488;23;619;-73
2023/01/29 01:22:59;;;;;;;;;;;;;;;12.60;71.75;102620.56;1259854;23;641;-73
2023/01/29 01:23:50;;;;;;;;;;;;;;;12.62;71.33;102613.34;1259459;23;623;-74
2023/01/29 01:24:41;;;;;;;;;;;;;;;12.60;72.48;102622.38;1261311;23;602;-74
2023/01/29 01:25:31;;;;;;;;;;;;;;;12.59;72.37;102618.84;1259484;23;627;-75
2023/01/29 01:26:22;;;;;;;;;;;;;;;12.57;71.61;102617.16;1259689;23;662;-74
2023/01/29 01:27:12;;;;;;;;;;;;;;;12.60;71.68;102617.91;1259564;23;611;-74
2023/01/29 01:28:03;;;;;;;;;;;;;;;12.62;71.95;102621.38;1259608;23;658;-75
2023/01/29 01:28:53;;;;;;;;;;;;;;;12.60;72.33;102625.91;1259211;23;670;-75
2023/01/29 01:29:44;;;;;;;;;;;;;;;12.59;72.45;102618.84;1261371;23;662;-75
2023/01/29 01:30:35;;;;;;;;;;;;;;;12.59;71.97;102621.50;1261255;23;629;-74
2023/01/29 01:31:25;;;;;;;;;;;;;;;12.57;71.84;102628.72;1259918;23;650;-74
2023/01/29 01:32:15;;;;;;;;;;;;;;;12.57;72.41;102626.06;1259537;23;634;-73
2023/01/29 01:33:06;;;;;;;;;;;;;;;12.57;71.85;102626.06;1259682;23;621;-75
2023/01/29 01:33:56;;;;;;;;;;;;;;;12.58;71.98;102632.28;1259474;23;622;-75
2023/01/29 01:34:47;;;;;;;;;;;;;;;12.59;71.90;102626.00;1259233;23;674;-75
2023/01/29 01:35:37;;;;;;;;;;;;;;;12.59;72.03;102620.63;1259477;23;650;-75
2023/01/29 01:36:28;;;;;;;;;;;;;;;12.59;72.16;102617.97;1261282;23;618;-75
2023/01/29 01:37:18;;;;;;;;;;;;;;;12.56;71.89;102613.63;1259889;23;792;-75
2023/01/29 01:38:09;;;;;;;;;;;;;;;12.58;72.16;102617.09;1261198;23;670;-74
2023/01/29 01:38:59;;;;;;;;;;;;;;;12.58;72.31;102613.56;1259502;23;607;-75
2023/01/29 01:39:50;;;;;;;;;;;;;;;12.58;71.46;102618.91;1259626;23;701;-75
2023/01/29 01:40:40;;;;;;;;;;;;;;;12.57;72.09;102615.34;1261393;23;630;-74
2023/01/29 01:41:30;;;;;;;;;;;;;;;12.57;71.67;102615.34;1261433;23;641;-75
2023/01/29 01:42:21;;;;;;;;;;;;;;;12.57;71.63;102620.69;1259808;23;630;-75
2023/01/29 01:43:11;;;;;;;;;;;;;;;12.57;71.73;102609.13;1259432;23;634;-75
2023/01/29 01:44:02;;;;;;;;;;;;;;;12.56;71.66;102615.41;1259787;23;678;-75
2023/01/29 01:44:52;;;;;;;;;;;;;;;12.57;71.91;102615.34;1259553;23;618;-75
2023/01/29 01:45:45;;;;;;;;;;;;;;;12.55;72.24;102611.88;1259574;23;1964;-75
2023/01/29 01:46:35;;;;;;;;;;;;;;;12.53;71.83;102616.47;1261185;23;606;-74
2023/01/29 01:47:26;;;;;;;;;;;;;;;12.54;71.49;102610.13;1259705;23;641;-74
2023/01/29 01:48:16;;;;;;;;;;;;;;;12.55;71.56;102611.00;1259466;23;609;-74
2023/01/29 01:49:07;;;;;;;;;;;;;;;12.54;72.50;102606.63;1259665;23;658;-74
2023/01/29 01:49:57;;;;;;;;;;;;;;;12.52;72.31;102604.03;1259491;23;622;-75
2023/01/29 01:50:48;;;;;;;;;;;;;;;12.55;71.89;102614.56;1259681;23;642;-75
2023/01/29 01:51:38;;;;;;;;;;;;;;;12.52;71.53;102612.91;1259759;23;630;-74
2023/01/29 01:52:29;;;;;;;;;;;;;;;12.54;72.27;102609.31;1259605;23;649;-73
2023/01/29 01:53:19;;;;;;;;;;;;;;;12.51;71.53;102608.50;1259774;23;642;-74
2023/01/29 01:54:09;;;;;;;;;;;;;;;12.53;71.74;102611.09;1259583;23;663;-73
2023/01/29 01:55:00;;;;;;;;;;;;;;;12.52;72.21;102612.03;1259783;23;622;-74
2023/01/29 01:55:50;;;;;;;;;;;;;;;12.51;72.16;102610.31;1259543;23;630;-74
2023/01/29 01:56:41;;;;;;;;;;;;;;;12.50;72.09;102619.25;1254947;23;661;-74
2023/01/29 01:57:32;;;;;;;;;;;;;;;12.52;72.38;102615.59;1254950;23;630;-74
2023/01/29 01:58:22;;;;;;;;;;;;;;;12.51;71.68;102613.84;1260560;23;622;-74
2023/01/29 01:59:12;;;;;;;;;;;;;;;12.51;71.56;102618.31;1259544;23;634;-74
2023/01/29 02:00:09;;;;;;;;;;;;;;;12.48;72.33;102613.09;1259749;23;685;-74
2023/01/29 02:00:59;;;;;;;;;;;;;;;12.47;72.58;102606.88;1261309;23;680;-74
2023/01/29 02:01:49;;;;;;;;;;;;;;;12.49;72.49;102612.19;1259513;23;599;-74
2023/01/29 02:09:35;;;;;;;;;;;;;;;12.49;72.00;102613.03;1261383;23;614;-75
2023/01/29 02:10:25;;;;;;;;;;;;;;;12.49;71.91;102606.81;1259449;23;640;-75
2023/01/29 02:11:16;;;;;;;;;;;;;;;12.50;71.88;102616.59;1259544;23;650;-75
2023/01/29 02:12:06;;;;;;;;;;;;;;;12.50;72.46;102613.91;1261372;23;602;-75
2023/01/29 02:12:56;;;;;;;;;;;;;;;12.50;72.38;102616.59;1259570;23;746;-75
2023/01/29 02:13:52;;;;;;;;;;;;;;;12.51;71.98;102611.16;1259643;23;614;-75
2023/01/29 02:14:42;;;;;;;;;;;;;;;12.49;72.39;102617.53;1260457;23;610;-75
2023/01/29 02:15:33;;;;;;;;;;;;;;;12.49;72.17;102606.81;1261230;23;633;-75
2023/01/29 02:16:23;;;;;;;;;;;;;;;12.50;72.40;102609.44;1259470;23;583;-77
2023/01/29 02:17:14;;;;;;;;;;;;;;;12.50;71.44;102606.75;1254951;23;618;-77
2023/01/29 02:18:05;;;;;;;;;;;;;;;12.49;72.24;102606.81;1254967;23;614;-78
2023/01/29 02:18:55;;;;;;;;;;;;;;;12.48;72.28;102600.59;1260538;23;614;-78
2023/01/29 02:19:45;;;;;;;;;;;;;;;12.51;72.38;102605.81;1259602;23;618;-77
2023/01/29 02:20:36;;;;;;;;;;;;;;;12.49;71.31;102602.34;1259919;23;641;-77
2023/01/29 02:21:27;;;;;;;;;;;;;;;12.50;71.96;102608.56;1255084;23;650;-77
2023/01/29 02:22:19;;;;;;;;;;;;;;;12.49;71.64;102607.69;1255069;23;658;-77
2023/01/29 02:23:10;;;;;;;;;;;;;;;12.49;72.45;102605.03;1261390;23;617;-77
2023/01/29 02:24:00;;;;;;;;;;;;;;;12.47;72.26;102609.56;1259727;23;631;-77
2023/01/29 02:24:50;;;;;;;;;;;;;;;12.47;72.52;102614.03;1259651;23;595;-77
2023/01/29 02:25:41;;;;;;;;;;;;;;;12.48;72.41;102615.78;1259799;23;598;-77
2023/01/29 02:26:31;;;;;;;;;;;;;;;12.46;71.97;102613.19;1259652;23;657;-77
2023/01/29 02:27:22;;;;;;;;;;;;;;;12.47;71.90;102619.41;1259744;23;705;-77
2023/01/29 02:28:12;;;;;;;;;;;;;;;12.47;71.52;102614.03;1259487;23;654;-77
2023/01/29 02:29:21;;;;;;;;;;;;;;;12.49;72.46;102622.88;1259583;23;594;-77
2023/01/29 02:30:11;;;;;;;;;;;;;;;12.48;71.59;102623.81;1261279;23;618;-79
2023/01/29 02:31:02;;;;;;;;;;;;;;;12.47;72.24;102624.75;1261358;23;587;-78
2023/01/29 02:31:52;;;;;;;;;;;;;;;12.47;72.36;102625.59;1259871;23;622;-77
2023/01/29 02:32:53;;;;;;;;;;;;;;;12.47;72.32;102624.75;1259301;23;623;-78
2023/01/29 02:33:43;;;;;;;;;;;;;;;12.46;72.51;102623.88;1260657;23;630;-78
2023/01/29 02:35:43;;;;;;;;;;;;;;;12.45;71.51;102626.59;1261342;23;654;-78
2023/01/29 02:36:33;;;;;;;;;;;;;;;12.45;72.64;102623.94;1259543;23;639;-78
2023/01/29 02:37:24;;;;;;;;;;;;;;;12.44;72.09;102624.88;1261432;23;622;-79
2023/01/29 02:38:16;;;;;;;;;;;;;;;12.44;71.54;102624.88;1260399;23;689;-78
2023/01/29 02:39:07;;;;;;;;;;;;;;;12.43;72.33;102631.16;1261344;23;610;-77
2023/01/29 02:39:57;;;;;;;;;;;;;;;12.44;72.46;102630.22;1260107;23;614;-78
2023/01/29 02:40:47;;;;;;;;;;;;;;;12.41;72.73;102625.88;1259963;23;606;-78
2023/01/29 02:41:38;;;;;;;;;;;;;;;12.41;71.82;102623.19;1262126;23;689;-78
2023/01/29 02:42:29;;;;;;;;;;;;;;;12.44;72.58;102627.53;1262028;23;622;-78
2023/01/29 02:43:19;;;;;;;;;;;;;;;12.43;71.75;102617.78;1262079;23;625;-80
2023/01/29 02:44:10;;;;;;;;;;;;;;;12.42;72.70;102627.59;1262429;23;653;-80
2023/01/29 02:45:00;;;;;;;;;;;;;;;12.41;72.70;102625.00;1255755;23;626;-81
2023/01/29 02:45:51;;;;;;;;;;;;;;;12.42;72.56;102624.06;1255755;23;1909;-80
2023/01/29 02:46:42;;;;;;;;;;;;;;;12.41;72.39;102627.69;1261424;23;781;-80
2023/01/29 02:47:32;;;;;;;;;;;;;;;12.40;72.52;102623.25;1254900;23;732;-80
2023/01/29 02:48:23;;;;;;;;;;;;;;;12.42;72.18;102618.72;1255326;23;581;-80
2023/01/29 02:49:13;;;;;;;;;;;;;;;12.44;71.98;102619.53;1260894;23;642;-79
2023/01/29 02:50:04;;;;;;;;;;;;;;;12.43;72.28;102617.78;1259889;23;639;-80
2023/01/29 02:50:54;;;;;;;;;;;;;;;12.41;72.29;102623.19;1262377;23;617;-80
2023/01/29 02:51:45;;;;;;;;;;;;;;;12.39;72.57;102622.41;1259951;23;666;-79
2023/01/29 02:52:35;;;;;;;;;;;;;;;12.41;71.84;102617.84;1260300;23;642;-79
2023/01/29 02:53:25;;;;;;;;;;;;;;;12.41;71.57;102625.00;1255365;23;613;-79
2023/01/29 02:54:16;;;;;;;;;;;;;;;12.41;72.55;102625.88;1255052;23;714;-79
2023/01/29 02:55:08;;;;;;;;;;;;;;;12.40;72.09;102621.47;1260724;23;626;-79
2023/01/29 02:55:58;;;;;;;;;;;;;;;12.39;72.24;102627.75;1261632;23;602;-79
2023/01/29 02:56:48;;;;;;;;;;;;;;;12.37;72.70;102621.59;1261558;23;614;-79
2023/01/29 02:57:39;;;;;;;;;;;;;;;12.38;72.52;102617.97;1261737;23;672;-78
2023/01/29 02:58:30;;;;;;;;;;;;;;;12.39;72.09;102613.50;1259803;23;658;-78
2023/01/29 02:59:20;;;;;;;;;;;;;;;12.37;71.67;102612.69;1260077;23;654;-78
2023/01/29 03:00:10;;;;;;;;;;;;;;;12.40;71.73;102609.91;1261528;23;653;-78
2023/01/29 03:01:01;;;;;;;;;;;;;;;12.39;71.68;102611.69;1260026;23;650;-78
2023/01/29 03:01:51;;;;;;;;;;;;;;;12.40;72.41;102602.75;1259138;23;638;-78
2023/01/29 03:02:42;;;;;;;;;;;;;;;12.40;72.21;102612.56;1259943;23;671;-77
2023/01/29 03:03:32;;;;;;;;;;;;;;;12.38;71.69;102604.63;1260180;23;662;-77
2023/01/29 03:04:23;;;;;;;;;;;;;;;12.39;71.98;102605.47;1261618;23;629;-76
2023/01/29 03:05:14;;;;;;;;;;;;;;;12.41;71.86;102608.97;1255309;23;633;-77
2023/01/29 03:06:07;;;;;;;;;;;;;;;12.39;71.73;102606.34;1255388;23;1937;-77
2023/01/29 03:06:57;;;;;;;;;;;;;;;12.39;72.40;102605.47;1260978;23;661;-77
2023/01/29 03:07:47;;;;;;;;;;;;;;;12.39;71.65;102605.47;1259716;23;623;-77
2023/01/29 03:08:42;;;;;;;;;;;;;;;12.37;72.04;102597.53;1260009;23;631;-77
2023/01/29 03:09:32;;;;;;;;;;;;;;;12.35;72.15;102603.91;1261519;23;653;-77
2023/01/29 03:10:22;;;;;;;;;;;;;;;12.35;71.99;102601.22;1255398;23;673;-77
2023/01/29 03:11:13;;;;;;;;;;;;;;;12.36;71.91;102602.97;1255252;23;689;-77
2023/01/29 03:12:17;;;;;;;;;;;;;;;12.37;71.71;102602.88;1260635;23;615;-77
2023/01/29 03:13:07;;;;;;;;;;;;;;;12.35;71.92;102603.91;1255140;23;602;-78
2023/01/29 03:13:58;;;;;;;;;;;;;;;12.38;71.93;102603.75;1255123;23;634;-77
2023/01/29 03:16:00;;;;;;;;;;;;;;;12.35;71.84;102599.44;1261495;23;661;-77
2023/01/29 03:16:50;;;;;;;;;;;;;;;12.34;72.15;102600.38;1261570;23;665;-77
2023/01/29 03:17:41;;;;;;;;;;;;;;;12.36;72.18;102600.31;1261660;23;614;-77
2023/01/29 03:18:31;;;;;;;;;;;;;;;12.38;72.16;102603.75;1260223;23;649;-77
2023/01/29 03:19:22;;;;;;;;;;;;;;;12.37;71.92;102597.53;1261506;23;622;-77
2023/01/29 03:20:13;;;;;;;;;;;;;;;12.38;72.01;102598.41;1260034;23;659;-77
2023/01/29 03:21:48;;;;;;;;;;;;;;;12.37;72.36;102596.66;1261511;23;614;-77
2023/01/29 03:22:15;;;;;;;;;;;;;;;12.37;71.84;102589.50;1261334;23;1008;-77
2023/01/29 03:23:06;;;;;;;;;;;;;;;12.38;72.21;102596.59;1261494;23;638;-77
2023/01/29 03:32:06;;;;;;;;;;;;;;;12.33;71.90;102571.88;1261559;23;615;-77
2023/01/29 03:32:57;;;;;;;;;;;;;;;12.33;72.58;102574.56;1261531;23;637;-77
2023/01/29 03:33:47;;;;;;;;;;;;;;;12.31;72.21;102576.44;1261514;23;637;-77
2023/01/29 03:34:38;;;;;;;;;;;;;;;12.31;72.54;102572.88;1259701;23;678;-77
2023/01/29 03:35:35;;;;;;;;;;;;;;;12.30;72.75;102569.34;1259928;23;662;-77
2023/01/29 03:36:25;;;;;;;;;;;;;;;12.31;72.46;102567.53;1261544;23;642;-77
2023/01/29 03:37:17;;;;;;;;;;;;;;;12.28;72.54;102568.53;1261524;23;692;-76
2023/01/29 03:38:11;;;;;;;;;;;;;;;12.28;72.06;102565.88;1261623;23;720;-77
2023/01/29 03:39:01;;;;;;;;;;;;;;;12.26;72.17;102567.75;1259933;23;646;-77
2023/01/29 03:39:51;;;;;;;;;;;;;;;12.30;72.14;102568.47;1255327;23;590;-77
2023/01/29 03:40:42;;;;;;;;;;;;;;;12.29;71.87;102569.41;1255063;23;657;-77
2023/01/29 03:41:32;;;;;;;;;;;;;;;12.28;72.36;102565.88;1255287;23;618;-77
2023/01/29 03:42:23;;;;;;;;;;;;;;;12.28;72.46;102567.69;1255955;23;648;-77
2023/01/29 03:43:13;;;;;;;;;;;;;;;12.30;72.83;102555.13;1261530;23;676;-73
2023/01/29 03:44:04;;;;;;;;;;;;;;;12.28;71.94;102562.34;1259726;23;673;-74
2023/01/29 03:44:54;;;;;;;;;;;;;;;12.28;71.87;102559.66;1260180;23;613;-74
2023/01/29 03:45:45;;;;;;;;;;;;;;;12.29;72.67;102561.41;1261615;23;685;-74
2023/01/29 03:46:35;;;;;;;;;;;;;;;12.28;72.08;102562.34;1260030;23;618;-74
2023/01/29 03:47:26;;;;;;;;;;;;;;;12.28;72.80;102560.53;1259805;23;616;-73
2023/01/29 03:48:16;;;;;;;;;;;;;;;12.29;72.47;102562.25;1259812;23;610;-74
2023/01/29 03:49:07;;;;;;;;;;;;;;;12.28;71.86;102562.34;1259561;23;610;-74
2023/01/29 03:49:57;;;;;;;;;;;;;;;12.26;72.03;102557.06;1261488;23;652;-74
2023/01/29 03:50:48;;;;;;;;;;;;;;;12.27;72.95;102552.56;1259714;23;657;-74
2023/01/29 03:51:38;;;;;;;;;;;;;;;12.27;72.42;102547.22;1259612;23;767;-74
2023/01/29 03:52:28;;;;;;;;;;;;;;;12.28;71.68;102538.28;1259636;23;611;-74
2023/01/29 03:53:19;;;;;;;;;;;;;;;12.29;71.82;102550.69;1259895;23;606;-74
2023/01/29 03:54:09;;;;;;;;;;;;;;;12.30;72.50;102557.78;1259554;23;646;-74
2023/01/29 03:55:00;;;;;;;;;;;;;;;12.31;72.19;102562.19;1261486;23;575;-76
2023/01/29 03:55:54;;;;;;;;;;;;;;;12.28;71.84;102565.00;1261448;23;641;-75
2023/01/29 03:56:44;;;;;;;;;;;;;;;12.30;72.78;102563.13;1261576;23;630;-75
2023/01/29 03:57:34;;;;;;;;;;;;;;;12.30;72.39;102550.63;1259695;23;728;-74
2023/01/29 03:58:25;;;;;;;;;;;;;;;12.30;71.79;102552.44;1259899;23;657;-73
2023/01/29 03:59:15;;;;;;;;;;;;;;;12.33;72.48;102541.63;1261483;23;645;-74
2023/01/29 04:00:07;;;;;;;;;;;;;;;12.33;71.72;102547.84;1259230;23;737;-74
2023/01/29 04:00:57;;;;;;;;;;;;;;;12.28;72.78;102554.31;1260633;23;641;-73
2023/01/29 04:01:47;;;;;;;;;;;;;;;12.28;72.63;102554.31;1259643;23;642;-73
2023/01/29 04:02:38;;;;;;;;;;;;;;;12.29;71.87;102548.91;1259850;23;637;-73
2023/01/29 04:03:28;;;;;;;;;;;;;;;12.32;71.99;102545.22;1260457;23;688;-73
2023/01/29 04:04:19;;;;;;;;;;;;;;;12.32;72.11;102547.91;1259856;23;626;-73
2023/01/29 04:05:09;;;;;;;;;;;;;;;12.30;71.77;102544.41;1259916;23;686;-74
2023/01/29 04:06:04;;;;;;;;;;;;;;;12.31;71.97;102543.50;1255015;23;1885;-74
2023/01/29 04:06:55;;;;;;;;;;;;;;;12.30;71.89;102549.78;1249205;23;649;-74
2023/01/29 04:07:46;;;;;;;;;;;;;;;12.26;72.41;102545.50;1255175;23;673;-74
2023/01/29 04:08:36;;;;;;;;;;;;;;;12.27;72.03;102547.22;1261468;23;613;-74
2023/01/29 04:09:27;;;;;;;;;;;;;;;12.29;72.13;102551.56;1259718;23;638;-74
2023/01/29 04:10:17;;;;;;;;;;;;;;;12.30;71.79;102541.75;1259893;23;681;-74
2023/01/29 04:11:07;;;;;;;;;;;;;;;12.29;72.79;102545.34;1259688;23;634;-74
2023/01/29 04:11:58;;;;;;;;;;;;;;;12.30;71.78;102549.78;1261385;23;640;-74
2023/01/29 04:12:48;;;;;;;;;;;;;;;12.30;72.18;102549.78;1259655;23;606;-74
2023/01/29 04:13:39;;;;;;;;;;;;;;;12.33;72.57;102546.97;1259741;23;661;-74
2023/01/29 04:14:29;;;;;;;;;;;;;;;12.31;71.83;102544.34;1259260;23;970;-74
2023/01/29 04:15:20;;;;;;;;;;;;;;;12.31;71.66;102546.16;1259694;23;653;-74
2023/01/29 04:16:10;;;;;;;;;;;;;;;12.26;72.63;102545.50;1259912;23;685;-74
2023/01/29 04:17:00;;;;;;;;;;;;;;;12.27;72.09;102539.22;1259670;23;646;-74
2023/01/29 04:17:51;;;;;;;;;;;;;;;12.24;72.69;102540.22;1259794;23;641;-73
2023/01/29 04:18:42;;;;;;;;;;;;;;;12.24;72.46;102539.34;1261387;23;618;-73
2023/01/29 04:19:32;;;;;;;;;;;;;;;12.23;72.36;102540.28;1255141;23;701;-73
2023/01/29 04:20:22;;;;;;;;;;;;;;;12.24;71.91;102547.34;1255071;23;657;-73
2023/01/29 04:21:13;;;;;;;;;;;;;;;12.23;72.04;102534.94;1260673;23;730;-74
2023/01/29 04:22:03;;;;;;;;;;;;;;;12.26;72.64;102546.34;1259902;23;615;-74
2023/01/29 04:22:54;;;;;;;;;;;;;;;12.27;72.64;102537.41;1259835;23;657;-74
2023/01/29 04:23:44;;;;;;;;;;;;;;;12.25;72.20;102535.72;1259948;23;666;-75
2023/01/29 04:24:35;;;;;;;;;;;;;;;12.26;72.18;102534.78;1259779;23;646;-75
2023/01/29 04:25:25;;;;;;;;;;;;;;;12.26;71.95;102540.16;1259958;23;674;-73
2023/01/29 04:26:16;;;;;;;;;;;;;;;12.27;71.91;102536.53;1259491;23;1923;-73
2023/01/29 04:27:06;;;;;;;;;;;;;;;12.29;71.95;102534.66;1261455;23;665;-73
2023/01/29 04:27:56;;;;;;;;;;;;;;;12.30;72.47;102537.28;1259552;23;610;-73
2023/01/29 04:28:47;;;;;;;;;;;;;;;12.25;72.61;102533.06;1260746;23;662;-73
2023/01/29 04:29:37;;;;;;;;;;;;;;;12.28;71.66;102532.94;1259923;23;662;-73
2023/01/29 04:30:28;;;;;;;;;;;;;;;12.26;72.06;102533.00;1259714;23;813;-73
2023/01/29 04:31:18;;;;;;;;;;;;;;;12.29;71.91;102537.34;1261224;23;594;-74
2023/01/29 04:32:09;;;;;;;;;;;;;;;12.26;72.70;102532.13;1261378;23;1226;-73
2023/01/29 04:32:59;;;;;;;;;;;;;;;12.26;72.35;102533.00;1259506;23;633;-73
2023/01/29 04:33:50;;;;;;;;;;;;;;;12.26;72.62;102529.44;1259754;23;630;-73
2023/01/29 04:34:40;;;;;;;;;;;;;;;12.28;72.50;102532.94;1261340;23;641;-74
2023/01/29 04:35:31;;;;;;;;;;;;;;;12.24;72.03;102521.50;1259722;23;614;-74
2023/01/29 04:36:21;;;;;;;;;;;;;;;12.27;71.93;102525.84;1259798;23;697;-73
2023/01/29 04:37:12;;;;;;;;;;;;;;;12.24;71.82;102525.97;1259610;23;615;-73
2023/01/29 04:38:02;;;;;;;;;;;;;;;12.22;72.24;102517.16;1259822;23;685;-73
2023/01/29 04:38:53;;;;;;;;;;;;;;;12.23;72.86;102522.44;1255039;23;769;-73
2023/01/29 04:39:43;;;;;;;;;;;;;;;12.21;72.89;102515.41;1249320;23;610;-73
2023/01/29 04:40:36;;;;;;;;;;;;;;;12.21;72.16;102512.75;1249205;23;1136;-73
2023/01/29 04:41:26;;;;;;;;;;;;;;;12.21;72.33;102518.09;1254995;23;653;-73
2023/01/29 04:42:17;;;;;;;;;;;;;;;12.22;72.47;102514.47;1261423;23;594;-74
2023/01/29 04:43:07;;;;;;;;;;;;;;;12.21;71.89;102505.59;1261325;23;689;-73
2023/01/29 04:43:59;;;;;;;;;;;;;;;12.20;72.02;102519.03;1261546;23;807;-73
2023/01/29 04:44:49;;;;;;;;;;;;;;;12.18;72.38;102514.63;1261422;23;696;-73
2023/01/29 04:45:40;;;;;;;;;;;;;;;12.18;72.83;102518.25;1259593;23;677;-74
2023/01/29 04:46:30;;;;;;;;;;;;;;;12.16;72.86;102511.16;1261339;23;649;-74
2023/01/29 04:47:21;;;;;;;;;;;;;;;12.16;72.17;102513.84;1259561;23;642;-74
2023/01/29 04:48:11;;;;;;;;;;;;;;;12.19;72.44;102512.81;1260008;23;677;-74
2023/01/29 04:49:03;;;;;;;;;;;;;;;12.18;72.21;102508.44;1260356;23;653;-74
2023/01/29 04:49:54;;;;;;;;;;;;;;;12.22;72.09;102511.81;1255014;23;665;-74
2023/01/29 04:50:44;;;;;;;;;;;;;;;12.19;72.08;102504.78;1254987;23;666;-73
2023/01/29 04:51:35;;;;;;;;;;;;;;;12.18;72.65;102509.28;1260621;23;664;-73
2023/01/29 04:52:26;;;;;;;;;;;;;;;12.18;72.14;102506.59;1261442;23;606;-74
2023/01/29 04:53:16;;;;;;;;;;;;;;;12.18;72.94;102504.88;1259868;23;650;-74
2023/01/29 04:54:07;;;;;;;;;;;;;;;12.20;72.58;102497.66;1259627;23;673;-74
2023/01/29 04:54:57;;;;;;;;;;;;;;;12.20;72.89;102500.31;1259915;23;680;-74
2023/01/29 04:55:48;;;;;;;;;;;;;;;12.22;71.90;102495.78;1259621;23;630;-74